sensor_id;sensor_type;location;lat;lon;timestamp;temperature;humidity
73252;DHT22;61473;50.834;4.552;2022-10-13T00:01:46;24.20;47.60
73252;DHT22;61473;50.834;4.552;2022-10-13T00:04:11;24.20;47.60
73252;DHT22;61473;50.834;4.552;2022-10-13T00:06:37;24.20;47.60
73252;DHT22;61473;50.834;4.552;2022-10-13T00:09:03;24.20;47.60
73252;DHT22;61473;50.834;4.552;2022-10-13T00:11:29;24.20;47.60
73252;DHT22;61473;50.834;4.552;2022-10-13T00:13:57;24.20;47.60
73252;DHT22;61473;50.834;4.552;2022-10-13T00:16:23;24.20;47.60
73252;DHT22;61473;50.834;4.552;2022-10-13T00:18:49;24.20;47.60
73252;DHT22;61473;50.834;4.552;2022-10-13T00:21:17;24.20;47.60
73252;DHT22;61473;50.834;4.552;2022-10-13T00:23:44;24.20;47.70
73252;DHT22;61473;50.834;4.552;2022-10-13T00:26:14;24.20;47.80
73252;DHT22;61473;50.834;4.552;2022-10-13T00:28:40;24.20;47.80
73252;DHT22;61473;50.834;4.552;2022-10-13T00:31:21;24.20;47.80
73252;DHT22;61473;50.834;4.552;2022-10-13T00:33:47;24.20;47.80
73252;DHT22;61473;50.834;4.552;2022-10-13T00:36:14;24.20;47.80
73252;DHT22;61473;50.834;4.552;2022-10-13T00:38:39;24.20;47.80
73252;DHT22;61473;50.834;4.552;2022-10-13T00:41:05;24.20;47.90
73252;DHT22;61473;50.834;4.552;2022-10-13T00:43:51;24.20;47.90
73252;DHT22;61473;50.834;4.552;2022-10-13T00:46:18;24.20;48.00
73252;DHT22;61473;50.834;4.552;2022-10-13T00:48:45;24.20;48.00
73252;DHT22;61473;50.834;4.552;2022-10-13T00:51:14;24.10;47.90
73252;DHT22;61473;50.834;4.552;2022-10-13T00:53:40;24.20;47.90
73252;DHT22;61473;50.834;4.552;2022-10-13T00:56:09;24.10;47.90
73252;DHT22;61473;50.834;4.552;2022-10-13T00:58:36;24.20;47.90
73252;DHT22;61473;50.834;4.552;2022-10-13T01:01:04;24.10;47.90
73252;DHT22;61473;50.834;4.552;2022-10-13T01:03:30;24.10;47.90
73252;DHT22;61473;50.834;4.552;2022-10-13T01:05:58;24.20;48.00
73252;DHT22;61473;50.834;4.552;2022-10-13T01:08:25;24.20;48.00
73252;DHT22;61473;50.834;4.552;2022-10-13T01:14:10;24.20;48.00
73252;DHT22;61473;50.834;4.552;2022-10-13T01:16:49;24.10;48.00
73252;DHT22;61473;50.834;4.552;2022-10-13T01:19:31;24.10;48.00
73252;DHT22;61473;50.834;4.552;2022-10-13T01:32:58;24.20;48.10
73252;DHT22;61473;50.834;4.552;2022-10-13T01:35:11;24.20;48.10
73252;DHT22;61473;50.834;4.552;2022-10-13T01:37:46;24.20;48.10
73252;DHT22;61473;50.834;4.552;2022-10-13T01:40:29;24.10;48.10
73252;DHT22;61473;50.834;4.552;2022-10-13T01:43:04;24.10;48.00
73252;DHT22;61473;50.834;4.552;2022-10-13T01:45:39;24.10;48.10
73252;DHT22;61473;50.834;4.552;2022-10-13T01:48:07;24.10;48.10
73252;DHT22;61473;50.834;4.552;2022-10-13T01:50:35;24.10;48.10
73252;DHT22;61473;50.834;4.552;2022-10-13T01:53:03;24.10;48.10
73252;DHT22;61473;50.834;4.552;2022-10-13T01:55:29;24.10;48.10
73252;DHT22;61473;50.834;4.552;2022-10-13T01:57:56;24.10;48.10
73252;DHT22;61473;50.834;4.552;2022-10-13T02:00:22;24.10;48.10
73252;DHT22;61473;50.834;4.552;2022-10-13T02:03:04;24.10;48.10
73252;DHT22;61473;50.834;4.552;2022-10-13T02:08:09;24.10;48.10
73252;DHT22;61473;50.834;4.552;2022-10-13T02:10:58;24.10;48.10
73252;DHT22;61473;50.834;4.552;2022-10-13T02:13:28;24.10;48.10
73252;DHT22;61473;50.834;4.552;2022-10-13T02:15:58;24.10;48.10
73252;DHT22;61473;50.834;4.552;2022-10-13T02:18:31;24.10;48.10
73252;DHT22;61473;50.834;4.552;2022-10-13T02:20:58;24.10;48.10
73252;DHT22;61473;50.834;4.552;2022-10-13T02:23:24;24.10;48.10
73252;DHT22;61473;50.834;4.552;2022-10-13T02:25:51;24.10;48.20
73252;DHT22;61473;50.834;4.552;2022-10-13T02:28:17;24.00;48.10
73252;DHT22;61473;50.834;4.552;2022-10-13T02:30:44;24.00;48.10
73252;DHT22;61473;50.834;4.552;2022-10-13T02:33:11;24.10;48.10
73252;DHT22;61473;50.834;4.552;2022-10-13T02:35:37;24.10;48.10
73252;DHT22;61473;50.834;4.552;2022-10-13T02:38:04;24.10;48.20
73252;DHT22;61473;50.834;4.552;2022-10-13T02:40:29;24.10;48.20
73252;DHT22;61473;50.834;4.552;2022-10-13T02:42:55;24.10;48.10
73252;DHT22;61473;50.834;4.552;2022-10-13T02:45:21;24.10;48.10
73252;DHT22;61473;50.834;4.552;2022-10-13T02:47:47;24.10;48.20
73252;DHT22;61473;50.834;4.552;2022-10-13T02:50:13;24.10;48.10
73252;DHT22;61473;50.834;4.552;2022-10-13T02:52:39;24.10;48.20
73252;DHT22;61473;50.834;4.552;2022-10-13T02:55:05;24.00;48.10
73252;DHT22;61473;50.834;4.552;2022-10-13T02:57:31;24.10;48.20
73252;DHT22;61473;50.834;4.552;2022-10-13T02:59:57;24.10;48.20
73252;DHT22;61473;50.834;4.552;2022-10-13T03:02:22;24.00;48.10
73252;DHT22;61473;50.834;4.552;2022-10-13T03:04:48;24.10;48.10
73252;DHT22;61473;50.834;4.552;2022-10-13T03:07:15;24.00;48.10
73252;DHT22;61473;50.834;4.552;2022-10-13T03:09:40;24.00;48.10
73252;DHT22;61473;50.834;4.552;2022-10-13T03:12:06;24.00;48.80
73252;DHT22;61473;50.834;4.552;2022-10-13T03:14:32;24.00;48.10
73252;DHT22;61473;50.834;4.552;2022-10-13T03:16:58;24.00;48.10
73252;DHT22;61473;50.834;4.552;2022-10-13T03:19:23;24.00;48.10
73252;DHT22;61473;50.834;4.552;2022-10-13T03:21:49;24.00;48.10
73252;DHT22;61473;50.834;4.552;2022-10-13T03:24:14;24.00;48.10
73252;DHT22;61473;50.834;4.552;2022-10-13T03:26:40;24.00;48.10
73252;DHT22;61473;50.834;4.552;2022-10-13T03:29:06;24.00;48.10
73252;DHT22;61473;50.834;4.552;2022-10-13T03:31:32;24.00;48.10
73252;DHT22;61473;50.834;4.552;2022-10-13T03:33:57;24.00;48.10
73252;DHT22;61473;50.834;4.552;2022-10-13T03:36:23;24.00;48.10
73252;DHT22;61473;50.834;4.552;2022-10-13T03:38:49;24.00;48.10
73252;DHT22;61473;50.834;4.552;2022-10-13T03:41:16;24.00;48.10
73252;DHT22;61473;50.834;4.552;2022-10-13T03:43:43;24.00;48.10
73252;DHT22;61473;50.834;4.552;2022-10-13T03:46:13;24.00;48.10
73252;DHT22;61473;50.834;4.552;2022-10-13T03:48:40;24.00;48.10
73252;DHT22;61473;50.834;4.552;2022-10-13T03:51:08;24.00;48.20
73252;DHT22;61473;50.834;4.552;2022-10-13T03:53:34;24.00;48.20
73252;DHT22;61473;50.834;4.552;2022-10-13T03:56:01;24.00;48.10
73252;DHT22;61473;50.834;4.552;2022-10-13T03:58:26;24.00;48.10
73252;DHT22;61473;50.834;4.552;2022-10-13T04:00:56;24.00;48.10
73252;DHT22;61473;50.834;4.552;2022-10-13T04:03:22;24.00;48.10
73252;DHT22;61473;50.834;4.552;2022-10-13T04:05:48;24.00;48.20
73252;DHT22;61473;50.834;4.552;2022-10-13T04:08:14;24.00;48.20
73252;DHT22;61473;50.834;4.552;2022-10-13T04:10:40;24.00;48.10
73252;DHT22;61473;50.834;4.552;2022-10-13T04:13:06;23.90;48.10
73252;DHT22;61473;50.834;4.552;2022-10-13T04:15:39;24.00;48.10
73252;DHT22;61473;50.834;4.552;2022-10-13T04:18:05;24.00;48.10
73252;DHT22;61473;50.834;4.552;2022-10-13T04:20:38;24.00;48.10
73252;DHT22;61473;50.834;4.552;2022-10-13T04:23:04;24.00;48.10
73252;DHT22;61473;50.834;4.552;2022-10-13T04:25:32;23.90;48.10
73252;DHT22;61473;50.834;4.552;2022-10-13T04:27:58;24.00;48.20
73252;DHT22;61473;50.834;4.552;2022-10-13T04:30:24;24.00;48.10
73252;DHT22;61473;50.834;4.552;2022-10-13T04:32:49;24.00;48.20
73252;DHT22;61473;50.834;4.552;2022-10-13T04:35:15;24.00;48.20
73252;DHT22;61473;50.834;4.552;2022-10-13T04:37:41;23.90;48.10
73252;DHT22;61473;50.834;4.552;2022-10-13T04:40:07;24.00;48.10
73252;DHT22;61473;50.834;4.552;2022-10-13T04:42:33;23.90;48.10
73252;DHT22;61473;50.834;4.552;2022-10-13T04:44:58;23.90;48.10
73252;DHT22;61473;50.834;4.552;2022-10-13T04:47:24;23.90;48.20
73252;DHT22;61473;50.834;4.552;2022-10-13T04:49:49;23.90;48.20
73252;DHT22;61473;50.834;4.552;2022-10-13T04:52:15;23.90;48.20
73252;DHT22;61473;50.834;4.552;2022-10-13T04:54:42;23.90;48.20
73252;DHT22;61473;50.834;4.552;2022-10-13T04:57:07;23.90;48.80
73252;DHT22;61473;50.834;4.552;2022-10-13T04:59:33;23.90;48.20
73252;DHT22;61473;50.834;4.552;2022-10-13T05:01:59;23.90;48.20
73252;DHT22;61473;50.834;4.552;2022-10-13T05:04:24;23.90;48.20
73252;DHT22;61473;50.834;4.552;2022-10-13T05:06:50;23.90;48.20
73252;DHT22;61473;50.834;4.552;2022-10-13T05:09:15;23.90;48.20
73252;DHT22;61473;50.834;4.552;2022-10-13T05:11:41;23.90;48.20
73252;DHT22;61473;50.834;4.552;2022-10-13T05:14:07;23.90;48.20
73252;DHT22;61473;50.834;4.552;2022-10-13T05:16:33;23.90;48.20
73252;DHT22;61473;50.834;4.552;2022-10-13T05:18:58;23.90;48.20
73252;DHT22;61473;50.834;4.552;2022-10-13T05:21:27;23.90;48.20
73252;DHT22;61473;50.834;4.552;2022-10-13T05:23:53;23.90;48.20
73252;DHT22;61473;50.834;4.552;2022-10-13T05:26:25;23.80;48.30
73252;DHT22;61473;50.834;4.552;2022-10-13T05:28:56;23.90;48.50
73252;DHT22;61473;50.834;4.552;2022-10-13T05:31:23;23.80;48.50
73252;DHT22;61473;50.834;4.552;2022-10-13T05:33:51;23.90;48.50
73252;DHT22;61473;50.834;4.552;2022-10-13T05:36:23;23.90;48.50
73252;DHT22;61473;50.834;4.552;2022-10-13T05:38:51;23.90;48.50
73252;DHT22;61473;50.834;4.552;2022-10-13T05:41:18;23.90;48.60
73252;DHT22;61473;50.834;4.552;2022-10-13T05:43:44;23.90;48.50
73252;DHT22;61473;50.834;4.552;2022-10-13T05:46:10;23.90;48.50
73252;DHT22;61473;50.834;4.552;2022-10-13T05:48:36;23.80;48.40
73252;DHT22;61473;50.834;4.552;2022-10-13T05:51:05;23.90;48.40
73252;DHT22;61473;50.834;4.552;2022-10-13T05:53:35;23.90;51.40
73252;DHT22;61473;50.834;4.552;2022-10-13T05:56:12;23.80;51.60
73252;DHT22;61473;50.834;4.552;2022-10-13T05:58:42;23.90;52.10
73252;DHT22;61473;50.834;4.552;2022-10-13T06:01:11;23.80;52.00
73252;DHT22;61473;50.834;4.552;2022-10-13T06:03:39;23.90;52.00
73252;DHT22;61473;50.834;4.552;2022-10-13T06:06:06;23.90;52.10
73252;DHT22;61473;50.834;4.552;2022-10-13T06:08:32;23.80;52.10
73252;DHT22;61473;50.834;4.552;2022-10-13T06:10:57;23.80;51.80
73252;DHT22;61473;50.834;4.552;2022-10-13T06:13:23;23.80;51.80
73252;DHT22;61473;50.834;4.552;2022-10-13T06:15:49;23.80;51.80
73252;DHT22;61473;50.834;4.552;2022-10-13T06:18:15;23.80;51.70
73252;DHT22;61473;50.834;4.552;2022-10-13T06:20:41;23.90;51.80
73252;DHT22;61473;50.834;4.552;2022-10-13T06:23:07;23.80;51.80
73252;DHT22;61473;50.834;4.552;2022-10-13T06:25:33;23.80;51.70
73252;DHT22;61473;50.834;4.552;2022-10-13T06:27:58;23.80;51.80
73252;DHT22;61473;50.834;4.552;2022-10-13T06:30:27;23.80;51.90
73252;DHT22;61473;50.834;4.552;2022-10-13T06:32:53;23.80;52.00
73252;DHT22;61473;50.834;4.552;2022-10-13T06:35:23;23.80;51.80
73252;DHT22;61473;50.834;4.552;2022-10-13T06:37:49;23.80;51.80
73252;DHT22;61473;50.834;4.552;2022-10-13T06:40:15;23.80;51.90
73252;DHT22;61473;50.834;4.552;2022-10-13T06:42:41;23.80;51.80
73252;DHT22;61473;50.834;4.552;2022-10-13T06:45:07;23.80;51.80
73252;DHT22;61473;50.834;4.552;2022-10-13T06:47:33;23.80;51.80
73252;DHT22;61473;50.834;4.552;2022-10-13T06:49:59;23.80;51.80
73252;DHT22;61473;50.834;4.552;2022-10-13T06:52:24;23.80;51.80
73252;DHT22;61473;50.834;4.552;2022-10-13T06:54:50;23.80;51.80
73252;DHT22;61473;50.834;4.552;2022-10-13T06:57:16;23.80;51.80
73252;DHT22;61473;50.834;4.552;2022-10-13T06:59:42;23.80;51.70
73252;DHT22;61473;50.834;4.552;2022-10-13T07:02:09;23.80;51.70
73252;DHT22;61473;50.834;4.552;2022-10-13T07:04:35;23.80;51.70
73252;DHT22;61473;50.834;4.552;2022-10-13T07:07:01;23.80;51.70
73252;DHT22;61473;50.834;4.552;2022-10-13T07:09:26;23.80;51.70
73252;DHT22;61473;50.834;4.552;2022-10-13T07:11:52;23.80;51.70
73252;DHT22;61473;50.834;4.552;2022-10-13T07:14:18;23.80;51.60
73252;DHT22;61473;50.834;4.552;2022-10-13T07:16:46;23.80;51.60
73252;DHT22;61473;50.834;4.552;2022-10-13T07:19:11;23.80;51.60
73252;DHT22;61473;50.834;4.552;2022-10-13T07:21:37;23.80;51.60
73252;DHT22;61473;50.834;4.552;2022-10-13T07:24:03;23.80;51.60
73252;DHT22;61473;50.834;4.552;2022-10-13T07:26:29;23.80;51.50
73252;DHT22;61473;50.834;4.552;2022-10-13T07:28:56;23.80;51.50
73252;DHT22;61473;50.834;4.552;2022-10-13T07:31:22;23.80;51.40
73252;DHT22;61473;50.834;4.552;2022-10-13T07:33:49;23.80;51.40
73252;DHT22;61473;50.834;4.552;2022-10-13T07:36:17;23.80;51.40
73252;DHT22;61473;50.834;4.552;2022-10-13T07:38:42;23.80;51.40
73252;DHT22;61473;50.834;4.552;2022-10-13T07:41:09;23.80;51.40
73252;DHT22;61473;50.834;4.552;2022-10-13T07:43:36;23.80;51.40
73252;DHT22;61473;50.834;4.552;2022-10-13T07:46:03;23.80;51.30
73252;DHT22;61473;50.834;4.552;2022-10-13T07:48:29;23.80;51.30
73252;DHT22;61473;50.834;4.552;2022-10-13T07:50:55;23.80;51.20
73252;DHT22;61473;50.834;4.552;2022-10-13T07:53:21;23.80;51.20
73252;DHT22;61473;50.834;4.552;2022-10-13T07:55:47;23.80;51.10
73252;DHT22;61473;50.834;4.552;2022-10-13T07:58:13;23.80;51.10
73252;DHT22;61473;50.834;4.552;2022-10-13T08:00:38;23.80;51.10
73252;DHT22;61473;50.834;4.552;2022-10-13T08:03:04;23.80;51.10
73252;DHT22;61473;50.834;4.552;2022-10-13T08:05:30;23.80;51.10
73252;DHT22;61473;50.834;4.552;2022-10-13T08:07:55;23.80;51.00
73252;DHT22;61473;50.834;4.552;2022-10-13T08:10:21;23.80;51.00
73252;DHT22;61473;50.834;4.552;2022-10-13T08:12:47;23.80;51.00
73252;DHT22;61473;50.834;4.552;2022-10-13T08:15:13;23.80;50.90
73252;DHT22;61473;50.834;4.552;2022-10-13T08:17:38;23.80;51.00
73252;DHT22;61473;50.834;4.552;2022-10-13T08:20:05;23.80;50.90
73252;DHT22;61473;50.834;4.552;2022-10-13T08:22:31;23.80;50.90
73252;DHT22;61473;50.834;4.552;2022-10-13T08:24:59;23.80;50.90
73252;DHT22;61473;50.834;4.552;2022-10-13T08:27:26;23.70;50.80
73252;DHT22;61473;50.834;4.552;2022-10-13T08:29:52;23.80;50.80
73252;DHT22;61473;50.834;4.552;2022-10-13T08:32:20;23.80;50.80
73252;DHT22;61473;50.834;4.552;2022-10-13T08:34:46;23.80;50.70
73252;DHT22;61473;50.834;4.552;2022-10-13T08:37:14;23.80;50.70
73252;DHT22;61473;50.834;4.552;2022-10-13T08:39:40;23.80;50.80
73252;DHT22;61473;50.834;4.552;2022-10-13T08:42:31;23.80;50.70
73252;DHT22;61473;50.834;4.552;2022-10-13T08:45:00;23.70;50.60
73252;DHT22;61473;50.834;4.552;2022-10-13T08:47:28;23.80;50.70
73252;DHT22;61473;50.834;4.552;2022-10-13T08:49:57;23.80;51.20
73252;DHT22;61473;50.834;4.552;2022-10-13T08:52:26;23.80;50.60
73252;DHT22;61473;50.834;4.552;2022-10-13T08:54:54;23.80;50.60
73252;DHT22;61473;50.834;4.552;2022-10-13T08:57:20;23.80;50.60
73252;DHT22;61473;50.834;4.552;2022-10-13T08:59:46;23.80;50.60
73252;DHT22;61473;50.834;4.552;2022-10-13T09:02:21;23.80;50.50
73252;DHT22;61473;50.834;4.552;2022-10-13T09:04:48;23.80;50.50
73252;DHT22;61473;50.834;4.552;2022-10-13T09:07:19;23.80;50.50
73252;DHT22;61473;50.834;4.552;2022-10-13T09:09:50;23.80;50.50
73252;DHT22;61473;50.834;4.552;2022-10-13T09:12:17;23.80;50.50
73252;DHT22;61473;50.834;4.552;2022-10-13T09:15:00;23.80;50.50
73252;DHT22;61473;50.834;4.552;2022-10-13T09:17:28;23.80;50.50
73252;DHT22;61473;50.834;4.552;2022-10-13T09:20:23;23.80;50.50
73252;DHT22;61473;50.834;4.552;2022-10-13T09:23:06;23.80;50.50
73252;DHT22;61473;50.834;4.552;2022-10-13T09:25:43;23.80;50.50
73252;DHT22;61473;50.834;4.552;2022-10-13T09:28:34;23.80;51.10
73252;DHT22;61473;50.834;4.552;2022-10-13T09:33:27;23.80;50.40
73252;DHT22;61473;50.834;4.552;2022-10-13T09:38:26;23.80;50.40
73252;DHT22;61473;50.834;4.552;2022-10-13T09:41:01;23.80;50.40
73252;DHT22;61473;50.834;4.552;2022-10-13T09:43:36;23.80;50.30
73252;DHT22;61473;50.834;4.552;2022-10-13T09:46:10;23.80;50.40
73252;DHT22;61473;50.834;4.552;2022-10-13T09:48:36;23.80;50.40
73252;DHT22;61473;50.834;4.552;2022-10-13T09:51:03;23.80;50.30
73252;DHT22;61473;50.834;4.552;2022-10-13T09:53:34;23.80;50.30
73252;DHT22;61473;50.834;4.552;2022-10-13T09:58:36;23.80;50.30
73252;DHT22;61473;50.834;4.552;2022-10-13T10:01:05;23.80;50.30
73252;DHT22;61473;50.834;4.552;2022-10-13T10:03:34;23.80;50.30
73252;DHT22;61473;50.834;4.552;2022-10-13T10:06:04;23.80;50.30
73252;DHT22;61473;50.834;4.552;2022-10-13T10:08:39;23.80;50.30
73252;DHT22;61473;50.834;4.552;2022-10-13T10:11:14;23.80;50.30
73252;DHT22;61473;50.834;4.552;2022-10-13T10:13:41;23.80;50.30
73252;DHT22;61473;50.834;4.552;2022-10-13T10:16:16;23.80;50.30
73252;DHT22;61473;50.834;4.552;2022-10-13T10:19:04;23.80;50.30
73252;DHT22;61473;50.834;4.552;2022-10-13T10:21:49;23.80;50.30
73252;DHT22;61473;50.834;4.552;2022-10-13T10:27:18;23.80;50.30
73252;DHT22;61473;50.834;4.552;2022-10-13T10:29:56;23.80;50.30
73252;DHT22;61473;50.834;4.552;2022-10-13T10:35:01;23.80;50.30
73252;DHT22;61473;50.834;4.552;2022-10-13T10:37:54;23.80;50.30
73252;DHT22;61473;50.834;4.552;2022-10-13T10:45:56;23.80;50.30
73252;DHT22;61473;50.834;4.552;2022-10-13T10:48:27;23.80;50.20
73252;DHT22;61473;50.834;4.552;2022-10-13T10:50:55;23.80;50.20
73252;DHT22;61473;50.834;4.552;2022-10-13T10:53:36;23.80;50.10
73252;DHT22;61473;50.834;4.552;2022-10-13T10:56:14;23.80;50.10
73252;DHT22;61473;50.834;4.552;2022-10-13T11:04:43;23.80;50.20
73252;DHT22;61473;50.834;4.552;2022-10-13T11:17:32;23.80;50.10
73252;DHT22;61473;50.834;4.552;2022-10-13T11:19:58;23.80;50.10
73252;DHT22;61473;50.834;4.552;2022-10-13T11:22:26;23.80;50.20
73252;DHT22;61473;50.834;4.552;2022-10-13T11:24:58;23.80;50.10
73252;DHT22;61473;50.834;4.552;2022-10-13T11:29:56;23.80;50.10
73252;DHT22;61473;50.834;4.552;2022-10-13T11:34:57;23.80;50.20
73252;DHT22;61473;50.834;4.552;2022-10-13T11:37:31;23.80;50.20
73252;DHT22;61473;50.834;4.552;2022-10-13T11:53:49;23.70;50.10
73252;DHT22;61473;50.834;4.552;2022-10-13T11:56:31;23.70;50.10
73252;DHT22;61473;50.834;4.552;2022-10-13T11:58:57;23.70;50.20
73252;DHT22;61473;50.834;4.552;2022-10-13T12:01:23;23.70;50.20
73252;DHT22;61473;50.834;4.552;2022-10-13T12:03:49;23.70;50.20
73252;DHT22;61473;50.834;4.552;2022-10-13T12:06:24;23.70;50.10
73252;DHT22;61473;50.834;4.552;2022-10-13T12:08:57;23.70;50.20
73252;DHT22;61473;50.834;4.552;2022-10-13T12:11:37;23.70;50.10
73252;DHT22;61473;50.834;4.552;2022-10-13T12:14:06;23.70;50.10
73252;DHT22;61473;50.834;4.552;2022-10-13T12:16:32;23.70;50.10
73252;DHT22;61473;50.834;4.552;2022-10-13T12:19:30;23.70;50.10
73252;DHT22;61473;50.834;4.552;2022-10-13T12:21:59;23.70;50.20
73252;DHT22;61473;50.834;4.552;2022-10-13T12:24:27;23.80;50.30
73252;DHT22;61473;50.834;4.552;2022-10-13T12:26:53;23.80;50.20
73252;DHT22;61473;50.834;4.552;2022-10-13T12:29:24;23.80;50.30
73252;DHT22;61473;50.834;4.552;2022-10-13T12:31:50;23.80;50.40
73252;DHT22;61473;50.834;4.552;2022-10-13T12:34:26;23.80;50.30
73252;DHT22;61473;50.834;4.552;2022-10-13T12:37:00;23.80;50.40
73252;DHT22;61473;50.834;4.552;2022-10-13T12:39:32;23.80;50.30
73252;DHT22;61473;50.834;4.552;2022-10-13T12:41:59;23.80;50.30
73252;DHT22;61473;50.834;4.552;2022-10-13T12:44:29;23.80;50.30
73252;DHT22;61473;50.834;4.552;2022-10-13T12:47:00;23.90;50.40
73252;DHT22;61473;50.834;4.552;2022-10-13T12:52:15;23.80;50.30
73252;DHT22;61473;50.834;4.552;2022-10-13T12:54:50;23.80;50.30
73252;DHT22;61473;50.834;4.552;2022-10-13T12:57:26;23.90;50.40
73252;DHT22;61473;50.834;4.552;2022-10-13T13:00:00;23.80;50.30
73252;DHT22;61473;50.834;4.552;2022-10-13T13:02:31;23.90;50.30
73252;DHT22;61473;50.834;4.552;2022-10-13T13:04:57;23.80;51.00
73252;DHT22;61473;50.834;4.552;2022-10-13T13:07:30;23.80;50.30
73252;DHT22;61473;50.834;4.552;2022-10-13T13:12:35;23.80;50.30
73252;DHT22;61473;50.834;4.552;2022-10-13T13:17:50;23.80;50.40
73252;DHT22;61473;50.834;4.552;2022-10-13T13:20:25;23.80;50.30
73252;DHT22;61473;50.834;4.552;2022-10-13T13:22:52;23.80;50.30
73252;DHT22;61473;50.834;4.552;2022-10-13T13:25:18;23.80;50.40
73252;DHT22;61473;50.834;4.552;2022-10-13T13:27:44;23.80;50.30
73252;DHT22;61473;50.834;4.552;2022-10-13T13:30:12;23.80;50.30
73252;DHT22;61473;50.834;4.552;2022-10-13T13:32:38;23.80;50.30
73252;DHT22;61473;50.834;4.552;2022-10-13T13:35:05;23.80;50.30
73252;DHT22;61473;50.834;4.552;2022-10-13T13:40:05;23.80;50.30
73252;DHT22;61473;50.834;4.552;2022-10-13T13:42:31;23.80;50.20
73252;DHT22;61473;50.834;4.552;2022-10-13T13:44:57;23.80;50.30
73252;DHT22;61473;50.834;4.552;2022-10-13T13:47:25;23.80;50.30
73252;DHT22;61473;50.834;4.552;2022-10-13T13:49:52;23.80;50.30
73252;DHT22;61473;50.834;4.552;2022-10-13T13:52:19;23.80;50.30
73252;DHT22;61473;50.834;4.552;2022-10-13T13:54:46;23.80;50.30
73252;DHT22;61473;50.834;4.552;2022-10-13T13:57:15;23.80;50.30
73252;DHT22;61473;50.834;4.552;2022-10-13T13:59:41;23.70;50.20
73252;DHT22;61473;50.834;4.552;2022-10-13T14:02:12;23.80;50.30
73252;DHT22;61473;50.834;4.552;2022-10-13T14:04:38;23.80;50.30
73252;DHT22;61473;50.834;4.552;2022-10-13T14:07:04;23.80;50.30
73252;DHT22;61473;50.834;4.552;2022-10-13T14:09:29;23.80;50.30
73252;DHT22;61473;50.834;4.552;2022-10-13T14:11:55;23.70;50.30
73252;DHT22;61473;50.834;4.552;2022-10-13T14:14:21;23.70;50.30
73252;DHT22;61473;50.834;4.552;2022-10-13T14:16:46;23.80;50.30
73252;DHT22;61473;50.834;4.552;2022-10-13T14:19:12;23.80;50.30
73252;DHT22;61473;50.834;4.552;2022-10-13T14:21:38;23.80;50.30
73252;DHT22;61473;50.834;4.552;2022-10-13T14:24:04;23.70;50.20
73252;DHT22;61473;50.834;4.552;2022-10-13T14:26:30;23.80;50.30
73252;DHT22;61473;50.834;4.552;2022-10-13T14:28:55;23.70;50.20
73252;DHT22;61473;50.834;4.552;2022-10-13T14:31:22;23.70;50.30
73252;DHT22;61473;50.834;4.552;2022-10-13T14:33:48;23.70;50.30
73252;DHT22;61473;50.834;4.552;2022-10-13T14:36:14;23.70;50.30
73252;DHT22;61473;50.834;4.552;2022-10-13T14:38:39;23.70;50.30
73252;DHT22;61473;50.834;4.552;2022-10-13T14:41:05;23.70;50.30
73252;DHT22;61473;50.834;4.552;2022-10-13T14:43:31;23.80;50.40
73252;DHT22;61473;50.834;4.552;2022-10-13T14:46:01;23.70;50.30
73252;DHT22;61473;50.834;4.552;2022-10-13T14:48:30;23.70;50.30
73252;DHT22;61473;50.834;4.552;2022-10-13T14:50:56;23.70;50.30
73252;DHT22;61473;50.834;4.552;2022-10-13T14:53:22;23.70;50.30
73252;DHT22;61473;50.834;4.552;2022-10-13T14:55:51;23.70;50.40
73252;DHT22;61473;50.834;4.552;2022-10-13T14:58:17;23.70;50.30
73252;DHT22;61473;50.834;4.552;2022-10-13T15:00:42;23.70;50.40
73252;DHT22;61473;50.834;4.552;2022-10-13T15:03:09;23.70;50.40
73252;DHT22;61473;50.834;4.552;2022-10-13T15:05:34;23.70;50.40
73252;DHT22;61473;50.834;4.552;2022-10-13T15:08:00;23.70;50.40
73252;DHT22;61473;50.834;4.552;2022-10-13T15:10:26;23.70;50.40
73252;DHT22;61473;50.834;4.552;2022-10-13T15:12:52;23.70;50.50
73252;DHT22;61473;50.834;4.552;2022-10-13T15:15:17;23.70;50.50
73252;DHT22;61473;50.834;4.552;2022-10-13T15:17:44;23.70;50.40
73252;DHT22;61473;50.834;4.552;2022-10-13T15:20:09;23.70;50.40
73252;DHT22;61473;50.834;4.552;2022-10-13T15:22:35;23.70;50.40
73252;DHT22;61473;50.834;4.552;2022-10-13T15:25:01;23.70;50.40
73252;DHT22;61473;50.834;4.552;2022-10-13T15:27:29;23.70;50.40
73252;DHT22;61473;50.834;4.552;2022-10-13T15:29:54;23.70;50.50
73252;DHT22;61473;50.834;4.552;2022-10-13T15:32:20;23.70;50.40
73252;DHT22;61473;50.834;4.552;2022-10-13T15:34:46;23.70;50.50
73252;DHT22;61473;50.834;4.552;2022-10-13T15:37:12;23.60;50.40
73252;DHT22;61473;50.834;4.552;2022-10-13T15:39:38;23.60;50.40
73252;DHT22;61473;50.834;4.552;2022-10-13T15:42:04;23.70;50.40
73252;DHT22;61473;50.834;4.552;2022-10-13T15:44:30;23.70;50.40
73252;DHT22;61473;50.834;4.552;2022-10-13T15:46:56;23.60;50.40
73252;DHT22;61473;50.834;4.552;2022-10-13T15:49:23;23.60;50.40
73252;DHT22;61473;50.834;4.552;2022-10-13T15:51:49;23.60;50.40
73252;DHT22;61473;50.834;4.552;2022-10-13T15:54:16;23.60;50.40
73252;DHT22;61473;50.834;4.552;2022-10-13T15:56:41;23.60;50.40
73252;DHT22;61473;50.834;4.552;2022-10-13T15:59:07;23.60;50.40
73252;DHT22;61473;50.834;4.552;2022-10-13T16:01:33;23.60;50.50
73252;DHT22;61473;50.834;4.552;2022-10-13T16:03:58;23.60;50.40
73252;DHT22;61473;50.834;4.552;2022-10-13T16:06:24;23.60;50.40
73252;DHT22;61473;50.834;4.552;2022-10-13T16:08:51;23.60;50.40
73252;DHT22;61473;50.834;4.552;2022-10-13T16:11:19;23.60;50.40
73252;DHT22;61473;50.834;4.552;2022-10-13T16:13:50;23.60;50.40
73252;DHT22;61473;50.834;4.552;2022-10-13T16:16:17;23.60;50.40
73252;DHT22;61473;50.834;4.552;2022-10-13T16:18:44;23.60;50.40
73252;DHT22;61473;50.834;4.552;2022-10-13T16:21:14;23.60;50.40
73252;DHT22;61473;50.834;4.552;2022-10-13T16:23:40;23.60;50.40
73252;DHT22;61473;50.834;4.552;2022-10-13T16:26:07;23.60;50.50
73252;DHT22;61473;50.834;4.552;2022-10-13T16:28:33;23.60;50.40
73252;DHT22;61473;50.834;4.552;2022-10-13T16:31:06;23.60;50.40
73252;DHT22;61473;50.834;4.552;2022-10-13T16:33:33;23.60;50.40
73252;DHT22;61473;50.834;4.552;2022-10-13T16:36:08;23.60;50.50
73252;DHT22;61473;50.834;4.552;2022-10-13T16:38:34;23.60;50.40
73252;DHT22;61473;50.834;4.552;2022-10-13T16:41:10;23.60;50.40
73252;DHT22;61473;50.834;4.552;2022-10-13T16:43:36;23.60;50.40
73252;DHT22;61473;50.834;4.552;2022-10-13T16:46:03;23.60;50.40
73252;DHT22;61473;50.834;4.552;2022-10-13T16:48:31;23.60;50.40
73252;DHT22;61473;50.834;4.552;2022-10-13T16:50:57;23.60;50.50
73252;DHT22;61473;50.834;4.552;2022-10-13T16:53:23;23.60;50.50
73252;DHT22;61473;50.834;4.552;2022-10-13T16:55:49;23.60;50.50
73252;DHT22;61473;50.834;4.552;2022-10-13T16:58:15;23.60;50.50